Dubuque, IA

12:18 AM CST on January 27, 2015 (GMT -0600)
Eagle Valley | Change Station
CLOSE
Current Station
Personal Weather Station
Location: Dubuque, IA
Elevation: 837 ft
Nearby Weather Stations

Elev 837 ft 42.54 °N, 90.66 °W | Updated 1 minute ago

Overcast
Overcast
26.5 °F
Feels Like 26 °F
N
0.0
Wind Variable Wind from SE
Gusts 0.0 mph

Today
High -- | Low -- °F
--% Chance of Precip.
Yesterday
High -- | Low -- °F
Precip. -- in
7:21 AM 5:09 PM
Waxing Crescent, 51% visible
Pressure 29.95 in
Visibility 4.0 miles
Clouds Overcast 2000 ft
Windchill 26 °F
Dew Point 25 °F
Humidity 94%
Rainfall 0.00 in
Snow Depth Not available.
UV 0 out of 12
Pollen .10 out of 12
Air Quality Not available.
Flu Activity Not available.
METAR KDBQ 270553Z AUTO 36004KT 4SM BR OVC020 M01/M03 A2991 RMK AO2 SLP142 T10111028 11011 21033 410111133 53015

More Conditions Fewer Conditions

Pressure 29.95 in
Visibility 4.0 miles
Clouds Overcast 2000 ft
Windchill 26 °F
Dew Point 25 °F
Humidity 94%
Rainfall 0.00 in
Snow Depth Not available.
UV 0 out of 12
Pollen .10 out of 12
Air Quality Not available.
Flu Activity Not available.
METAR KDBQ 270553Z AUTO 36004KT 4SM BR OVC020 M01/M03 A2991 RMK AO2 SLP142 T10111028 11011 21033 410111133 53015

More Conditions Fewer Conditions

10-Day Weather Forecast

Almanac

Astronomy

Jan. 27, 2015 Rise Set
Actual Time
Civil Twilight
Nautical Twilight
Astronomical Twilight
Moon
Length of Visible Light
Length of Day
Tomorrow will be .
, % of the Moon is Illuminated

Today's Extremes

State Highs State Lows

Community

WunderPhotos

Upload Photos

1,790,542 photos uploaded!

WunderBlogs® & News

Nearby

Air Quality

  Air Quality AQ Index Pollutant
Not available.

Snow Depth

Station Depth Elevation

Earthquake Activity

City Distance Mag. Time & Date
Minimum magnitude displayed is 2.5.

Coastal Water Temperatures

Place Temperature

Nearby Weather Stations